Wetterdaten: Samstag, 02.05.2015
Datum Zeit Temp. A. Feuchte A. Luftdruck Regen Wind Richtung Richtung Sonnenschein ET UV Solar Taupunkt Windchill Windben Empfang
02.05.2015 00:00 9,5 C 99 % 1003,3 hPa 0,0 l/m 0,0 km/h (0 Bft) S 174 0 min 0,000 mm 0,0 UV-I 0 W/m 9,4 C 9,5 C 0,0 km/h (0 Bft) 0,00 %
02.05.2015 00:15 9,5 C 99 % 1003,5 hPa 0,0 l/m 0,0 km/h (0 Bft) S 176 0 min 0,000 mm 0,0 UV-I 0 W/m 9,4 C 9,5 C 0,0 km/h (0 Bft) 0,00 %
02.05.2015 00:30 9,5 C 99 % 1003,2 hPa 0,3 l/m 1,8 km/h (1 Bft) O-SO 121 0 min 0,000 mm 0,0 UV-I 0 W/m 9,4 C 9,5 C 4,0 km/h (1 Bft) 0,00 %
02.05.2015 00:45 9,5 C 99 % 1003,6 hPa 0,0 l/m 0,0 km/h (0 Bft) S-SW 194 0 min 0,000 mm 0,0 UV-I 0 W/m 9,4 C 9,5 C 0,0 km/h (0 Bft) 0,00 %
02.05.2015 01:00 9,5 C 99 % 1003,3 hPa 0,3 l/m 0,0 km/h (0 Bft) S 178 0 min 0,000 mm 0,0 UV-I 0 W/m 9,4 C 9,5 C 0,0 km/h (0 Bft) 0,00 %
02.05.2015 01:15 9,5 C 99 % 1003,3 hPa 0,3 l/m 0,0 km/h (0 Bft) S 175 0 min 0,000 mm 0,0 UV-I 0 W/m 9,4 C 9,5 C 0,0 km/h (0 Bft) 0,00 %
02.05.2015 01:30 9,5 C 99 % 1003,5 hPa 0,3 l/m 0,0 km/h (0 Bft) S 185 0 min 0,000 mm 0,0 UV-I 0 W/m 9,4 C 9,5 C 0,0 km/h (0 Bft) 0,00 %
02.05.2015 01:45 9,5 C 99 % 1003,5 hPa 0,3 l/m 0,0 km/h (0 Bft) S-SW 199 0 min 0,000 mm 0,0 UV-I 0 W/m 9,4 C 9,5 C 0,0 km/h (0 Bft) 0,00 %
02.05.2015 02:00 9,5 C 99 % 1003,3 hPa 0,6 l/m 0,0 km/h (0 Bft) S 181 0 min 0,000 mm 0,0 UV-I 0 W/m 9,4 C 9,5 C 0,0 km/h (0 Bft) 0,00 %
02.05.2015 02:15 9,5 C 99 % 1003,2 hPa 0,9 l/m 0,0 km/h (0 Bft) S-SW 192 0 min 0,000 mm 0,0 UV-I 0 W/m 9,4 C 9,5 C 0,0 km/h (0 Bft) 0,00 %
02.05.2015 02:30 9,5 C 99 % 1003,3 hPa 0,3 l/m 0,0 km/h (0 Bft) S-SW 193 0 min 0,000 mm 0,0 UV-I 0 W/m 9,4 C 9,5 C 0,0 km/h (0 Bft) 0,00 %
02.05.2015 02:45 9,5 C 99 % 1003,3 hPa 0,3 l/m 0,0 km/h (0 Bft) SW 225 0 min 0,000 mm 0,0 UV-I 0 W/m 9,4 C 9,5 C 0,0 km/h (0 Bft) 0,00 %
02.05.2015 03:00 9,5 C 99 % 1003,7 hPa 0,3 l/m 0,0 km/h (0 Bft) S-SW 195 0 min 0,000 mm 0,0 UV-I 0 W/m 9,4 C 9,5 C 0,0 km/h (0 Bft) 0,00 %
02.05.2015 03:15 9,6 C 99 % 1003,8 hPa 0,6 l/m 0,0 km/h (0 Bft) SW 215 0 min 0,000 mm 0,0 UV-I 0 W/m 9,5 C 9,6 C 0,0 km/h (0 Bft) 0,00 %
02.05.2015 03:30 9,6 C 99 % 1003,9 hPa 0,0 l/m 0,0 km/h (0 Bft) S-SW 195 0 min 0,000 mm 0,0 UV-I 0 W/m 9,5 C 9,6 C 0,0 km/h (0 Bft) 0,00 %
02.05.2015 03:45 9,5 C 99 % 1003,9 hPa 0,3 l/m 0,0 km/h (0 Bft) S-SW 192 0 min 0,000 mm 0,0 UV-I 0 W/m 9,4 C 9,5 C 0,0 km/h (0 Bft) 0,00 %
02.05.2015 04:00 9,5 C 99 % 1004,0 hPa 0,0 l/m 0,0 km/h (0 Bft) S 187 0 min 0,000 mm 0,0 UV-I 0 W/m 9,4 C 9,5 C 0,0 km/h (0 Bft) 0,00 %
02.05.2015 04:15 9,6 C 99 % 1004,1 hPa 0,3 l/m 0,0 km/h (0 Bft) S-SW 193 0 min 0,000 mm 0,0 UV-I 0 W/m 9,5 C 9,6 C 0,0 km/h (0 Bft) 0,00 %
02.05.2015 04:30 9,6 C 99 % 1004,0 hPa 0,0 l/m 0,0 km/h (0 Bft) SW 215 0 min 0,000 mm 0,0 UV-I 0 W/m 9,5 C 9,6 C 0,0 km/h (0 Bft) 0,00 %
02.05.2015 04:45 9,6 C 99 % 1004,0 hPa 0,0 l/m 0,0 km/h (0 Bft) S 173 0 min 0,000 mm 0,0 UV-I 0 W/m 9,5 C 9,6 C 0,0 km/h (0 Bft) 0,00 %
02.05.2015 05:00 9,7 C 99 % 1003,9 hPa 0,3 l/m 0,0 km/h (0 Bft) S-SO 162 0 min 0,000 mm 0,0 UV-I 0 W/m 9,6 C 9,7 C 0,0 km/h (0 Bft) 0,00 %
02.05.2015 05:15 9,7 C 99 % 1004,2 hPa 1,5 l/m 0,0 km/h (0 Bft) O 85 0 min 0,000 mm 0,0 UV-I 0 W/m 9,6 C 9,7 C 0,0 km/h (0 Bft) 0,00 %
02.05.2015 05:30 9,4 C 99 % 1004,4 hPa 2,7 l/m 0,0 km/h (0 Bft) SW 228 0 min 0,000 mm 0,0 UV-I 0 W/m 9,3 C 9,4 C 0,0 km/h (0 Bft) 0,00 %
02.05.2015 05:45 9,3 C 99 % 1004,9 hPa 0,9 l/m 0,0 km/h (0 Bft) S-SW 198 0 min 0,000 mm 0,0 UV-I 0 W/m 9,2 C 9,3 C 0,0 km/h (0 Bft) 0,00 %
02.05.2015 06:00 9,3 C 99 % 1005,4 hPa 1,2 l/m 0,4 km/h (0 Bft) SW 221 0 min 0,000 mm 0,0 UV-I 0 W/m 9,2 C 9,3 C 4,0 km/h (1 Bft) 0,00 %
02.05.2015 06:15 9,3 C 99 % 1005,7 hPa 0,6 l/m 0,0 km/h (0 Bft) S 184 0 min 0,000 mm 0,0 UV-I 0 W/m 9,2 C 9,3 C 0,0 km/h (0 Bft) 0,00 %
02.05.2015 06:30 9,4 C 99 % 1006,1 hPa 0,6 l/m 0,0 km/h (0 Bft) S-SW 198 0 min 0,000 mm 0,0 UV-I 7 W/m 9,3 C 9,4 C 0,0 km/h (0 Bft) 0,00 %
02.05.2015 06:45 9,3 C 99 % 1006,6 hPa 0,3 l/m 0,0 km/h (0 Bft) SW 226 0 min 0,000 mm 0,0 UV-I 16 W/m 9,2 C 9,3 C 0,0 km/h (0 Bft) 0,00 %
02.05.2015 07:00 9,2 C 99 % 1007,0 hPa 0,0 l/m 0,0 km/h (0 Bft) S-SW 211 0 min 0,000 mm 0,0 UV-I 21 W/m 9,1 C 9,2 C 0,0 km/h (0 Bft) 0,00 %
02.05.2015 07:15 9,2 C 99 % 1007,4 hPa 0,0 l/m 0,7 km/h (0 Bft) S 179 0 min 0,000 mm 0,0 UV-I 49 W/m 9,1 C 9,2 C 4,0 km/h (1 Bft) 0,00 %
02.05.2015 07:30 9,2 C 99 % 1007,9 hPa 0,0 l/m 0,0 km/h (0 Bft) S 172 0 min 0,000 mm 0,0 UV-I 51 W/m 9,1 C 9,2 C 0,0 km/h (0 Bft) 0,00 %
02.05.2015 07:45 9,3 C 99 % 1008,1 hPa 0,0 l/m 0,4 km/h (0 Bft) W-SW 251 0 min 0,000 mm 1,0 UV-I 61 W/m 9,2 C 9,3 C 4,0 km/h (1 Bft) 0,00 %
02.05.2015 08:00 9,3 C 99 % 1008,5 hPa 0,0 l/m 0,0 km/h (0 Bft) W-SW 252 0 min 0,000 mm 1,0 UV-I 62 W/m 9,2 C 9,3 C 0,0 km/h (0 Bft) 0,00 %
02.05.2015 08:15 9,3 C 99 % 1008,7 hPa 0,0 l/m 0,0 km/h (0 Bft) S-SW 208 0 min 0,000 mm 1,0 UV-I 69 W/m 9,2 C 9,3 C 0,0 km/h (0 Bft) 0,00 %
02.05.2015 08:30 9,2 C 99 % 1009,3 hPa 0,0 l/m 0,0 km/h (0 Bft) SW 234 0 min 0,000 mm 1,0 UV-I 68 W/m 9,1 C 9,2 C 0,0 km/h (0 Bft) 0,00 %
02.05.2015 08:45 9,3 C 99 % 1009,6 hPa 0,0 l/m 0,0 km/h (0 Bft) S 181 0 min 0,000 mm 1,0 UV-I 84 W/m 9,2 C 9,3 C 0,0 km/h (0 Bft) 0,00 %
02.05.2015 09:00 9,5 C 99 % 1009,5 hPa 0,0 l/m 1,4 km/h (1 Bft) SW 228 0 min 0,000 mm 1,0 UV-I 77 W/m 9,4 C 9,5 C 4,0 km/h (1 Bft) 0,00 %
02.05.2015 09:15 9,6 C 99 % 1009,8 hPa 0,0 l/m 0,0 km/h (0 Bft) SW 233 0 min 0,000 mm 1,0 UV-I 91 W/m 9,5 C 9,6 C 0,0 km/h (0 Bft) 0,00 %
02.05.2015 09:30 9,6 C 98 % 1010,0 hPa 0,0 l/m 0,0 km/h (0 Bft) SW 223 0 min 0,000 mm 1,0 UV-I 78 W/m 9,3 C 9,6 C 0,0 km/h (0 Bft) 0,00 %
02.05.2015 09:45 9,6 C 98 % 1010,2 hPa 0,3 l/m 0,0 km/h (0 Bft) S-SW 203 0 min 0,000 mm 1,0 UV-I 100 W/m 9,3 C 9,6 C 0,0 km/h (0 Bft) 0,00 %
02.05.2015 10:00 9,9 C 98 % 1010,4 hPa 0,0 l/m 0,0 km/h (0 Bft) S-SW 197 0 min 0,000 mm 1,0 UV-I 133 W/m 9,6 C 9,9 C 0,0 km/h (0 Bft) 0,00 %
02.05.2015 10:15 10,0 C 97 % 1010,5 hPa 0,0 l/m 0,0 km/h (0 Bft) W-SW 252 0 min 0,000 mm 1,0 UV-I 99 W/m 9,5 C 10,0 C 0,0 km/h (0 Bft) 0,00 %
02.05.2015 10:30 10,0 C 97 % 1010,8 hPa 0,0 l/m 0,0 km/h (0 Bft) S-SW 213 0 min 0,000 mm 1,0 UV-I 90 W/m 9,5 C 10,0 C 0,0 km/h (0 Bft) 0,00 %
02.05.2015 10:45 10,3 C 96 % 1010,5 hPa 0,0 l/m 0,0 km/h (0 Bft) SW 223 0 min 0,000 mm 2,0 UV-I 140 W/m 9,7 C 10,3 C 0,0 km/h (0 Bft) 0,00 %
02.05.2015 11:00 11,0 C 95 % 1010,8 hPa 0,0 l/m 0,4 km/h (0 Bft) W-SW 255 0 min 0,000 mm 1,0 UV-I 151 W/m 10,2 C 11,0 C 4,0 km/h (1 Bft) 0,00 %
02.05.2015 11:15 10,7 C 95 % 1011,0 hPa 0,0 l/m 0,4 km/h (0 Bft) SW 233 0 min 0,000 mm 2,0 UV-I 171 W/m 9,9 C 10,7 C 4,0 km/h (1 Bft) 0,00 %
02.05.2015 11:30 11,0 C 93 % 1011,3 hPa 0,0 l/m 0,0 km/h (0 Bft) S-SW 198 0 min 0,000 mm 2,0 UV-I 172 W/m 9,9 C 11,0 C 0,0 km/h (0 Bft) 0,00 %
02.05.2015 11:45 11,1 C 91 % 1011,3 hPa 0,0 l/m 4,3 km/h (1 Bft) SW 228 0 min 0,000 mm 2,0 UV-I 303 W/m 9,7 C 11,1 C 7,9 km/h (2 Bft) 0,00 %
02.05.2015 12:00 11,7 C 86 % 1011,4 hPa 0,0 l/m 0,0 km/h (0 Bft) S 185 0 min 0,000 mm 3,0 UV-I 439 W/m 9,4 C 11,7 C 0,0 km/h (0 Bft) 0,00 %
02.05.2015 12:15 12,6 C 83 % 1011,1 hPa 0,0 l/m 1,4 km/h (1 Bft) SW 227 0 min 0,000 mm 3,0 UV-I 450 W/m 9,8 C 12,6 C 4,0 km/h (1 Bft) 0,00 %
02.05.2015 12:30 12,7 C 80 % 1011,3 hPa 0,0 l/m 2,2 km/h (1 Bft) SW 226 0 min 0,000 mm 1,0 UV-I 148 W/m 9,3 C 12,7 C 4,0 km/h (1 Bft) 0,00 %
02.05.2015 12:45 11,7 C 81 % 1011,4 hPa 0,0 l/m 0,7 km/h (0 Bft) O 98 0 min 0,000 mm 3,0 UV-I 246 W/m 8,5 C 11,7 C 4,0 km/h (1 Bft) 0,00 %
02.05.2015 13:00 13,0 C 76 % 1011,1 hPa 0,0 l/m 0,4 km/h (0 Bft) S 184 15 min 0,000 mm 4,0 UV-I 466 W/m 8,9 C 13,0 C 4,0 km/h (1 Bft) 0,00 %
02.05.2015 13:15 13,4 C 74 % 1011,2 hPa 0,0 l/m 0,0 km/h (0 Bft) S-SW 199 0 min 0,000 mm 2,0 UV-I 240 W/m 8,9 C 13,4 C 0,0 km/h (0 Bft) 0,00 %
02.05.2015 13:30 12,8 C 76 % 1011,1 hPa 0,0 l/m 5,8 km/h (2 Bft) W-SW 254 0 min 0,000 mm 2,0 UV-I 277 W/m 8,7 C 12,8 C 7,9 km/h (2 Bft) 0,00 %
02.05.2015 13:45 13,6 C 74 % 1011,1 hPa 0,0 l/m 0,0 km/h (0 Bft) W-SW 256 0 min 0,000 mm 3,0 UV-I 426 W/m 9,1 C 13,6 C 0,0 km/h (0 Bft) 0,00 %
02.05.2015 14:00 14,3 C 71 % 1010,9 hPa 0,0 l/m 0,7 km/h (0 Bft) W 272 0 min 0,000 mm 2,0 UV-I 366 W/m 9,1 C 14,3 C 4,0 km/h (1 Bft) 0,00 %
02.05.2015 14:15 14,5 C 70 % 1010,8 hPa 0,0 l/m 1,4 km/h (1 Bft) W 265 15 min 0,000 mm 4,0 UV-I 447 W/m 9,1 C 14,5 C 4,0 km/h (1 Bft) 0,00 %
02.05.2015 14:30 15,3 C 67 % 1010,8 hPa 0,0 l/m 1,4 km/h (1 Bft) W 281 15 min 0,000 mm 5,0 UV-I 503 W/m 9,2 C 15,3 C 4,0 km/h (1 Bft) 0,00 %
02.05.2015 14:45 15,6 C 63 % 1010,7 hPa 0,0 l/m 0,0 km/h (0 Bft) SW 217 15 min 0,000 mm 3,0 UV-I 517 W/m 8,6 C 15,6 C 0,0 km/h (0 Bft) 0,00 %
02.05.2015 15:00 15,3 C 66 % 1010,8 hPa 0,0 l/m 0,0 km/h (0 Bft) S-SW 210 15 min 0,000 mm 3,0 UV-I 425 W/m 9,0 C 15,3 C 0,0 km/h (0 Bft) 0,00 %
02.05.2015 15:15 15,9 C 60 % 1010,7 hPa 0,0 l/m 1,4 km/h (1 Bft) NW 320 15 min 0,000 mm 3,0 UV-I 434 W/m 8,1 C 15,9 C 4,0 km/h (1 Bft) 0,00 %
02.05.2015 15:30 15,4 C 61 % 1010,7 hPa 0,0 l/m 1,4 km/h (1 Bft) S-SW 192 0 min 0,000 mm 2,0 UV-I 376 W/m 7,9 C 15,4 C 4,0 km/h (1 Bft) 0,00 %
02.05.2015 15:45 15,1 C 63 % 1010,6 hPa 0,0 l/m 4,7 km/h (1 Bft) SW 225 0 min 0,000 mm 2,0 UV-I 249 W/m 8,1 C 15,1 C 7,9 km/h (2 Bft) 0,00 %
02.05.2015 16:00 15,2 C 65 % 1010,6 hPa 0,0 l/m 1,4 km/h (1 Bft) SW 223 0 min 0,000 mm 2,0 UV-I 291 W/m 8,7 C 15,2 C 4,0 km/h (1 Bft) 0,00 %
02.05.2015 16:15 15,4 C 63 % 1010,7 hPa 0,0 l/m 2,2 km/h (1 Bft) SW 234 0 min 0,000 mm 2,0 UV-I 307 W/m 8,4 C 15,4 C 4,0 km/h (1 Bft) 0,00 %
02.05.2015 16:30 15,4 C 62 % 1010,7 hPa 0,0 l/m 1,8 km/h (1 Bft) SW 231 0 min 0,000 mm 2,0 UV-I 281 W/m 8,2 C 15,4 C 4,0 km/h (1 Bft) 0,00 %
02.05.2015 16:45 15,5 C 63 % 1011,0 hPa 0,0 l/m 4,0 km/h (1 Bft) SW 230 15 min 0,000 mm 2,0 UV-I 346 W/m 8,5 C 15,5 C 7,9 km/h (2 Bft) 0,00 %
02.05.2015 17:00 15,5 C 62 % 1010,8 hPa 0,0 l/m 0,0 km/h (0 Bft) W-SW 252 0 min 0,000 mm 2,0 UV-I 283 W/m 8,3 C 15,5 C 0,0 km/h (0 Bft) 0,00 %
02.05.2015 17:15 15,2 C 63 % 1011,1 hPa 0,0 l/m 0,0 km/h (0 Bft) S 181 0 min 0,000 mm 2,0 UV-I 210 W/m 8,2 C 15,2 C 0,0 km/h (0 Bft) 0,00 %
02.05.2015 17:30 15,4 C 63 % 1011,0 hPa 0,0 l/m 0,0 km/h (0 Bft) SW 216 15 min 0,000 mm 1,0 UV-I 262 W/m 8,4 C 15,4 C 0,0 km/h (0 Bft) 0,00 %
02.05.2015 17:45 14,9 C 65 % 1011,2 hPa 0,0 l/m 0,4 km/h (0 Bft) W-SW 252 0 min 0,000 mm 1,0 UV-I 178 W/m 8,4 C 14,9 C 4,0 km/h (1 Bft) 0,00 %
02.05.2015 18:00 14,7 C 66 % 1011,3 hPa 0,0 l/m 0,0 km/h (0 Bft) S-SW 195 0 min 0,000 mm 1,0 UV-I 115 W/m 8,4 C 14,7 C 0,0 km/h (0 Bft) 0,00 %
02.05.2015 18:15 14,6 C 67 % 1011,3 hPa 0,0 l/m 0,7 km/h (0 Bft) W-SW 254 0 min 0,000 mm 1,0 UV-I 167 W/m 8,5 C 14,6 C 4,0 km/h (1 Bft) 0,00 %
02.05.2015 18:30 14,4 C 69 % 1011,2 hPa 0,0 l/m 0,4 km/h (0 Bft) SW 226 0 min 0,000 mm 1,0 UV-I 78 W/m 8,8 C 14,4 C 4,0 km/h (1 Bft) 0,00 %
02.05.2015 18:45 14,0 C 73 % 1011,5 hPa 0,0 l/m 0,0 km/h (0 Bft) S 172 0 min 0,000 mm 1,0 UV-I 66 W/m 9,2 C 14,0 C 0,0 km/h (0 Bft) 0,00 %
02.05.2015 19:00 13,9 C 73 % 1011,4 hPa 0,0 l/m 0,0 km/h (0 Bft) S 175 0 min 0,000 mm 1,0 UV-I 95 W/m 9,1 C 13,9 C 0,0 km/h (0 Bft) 0,00 %
02.05.2015 19:15 13,6 C 74 % 1011,7 hPa 0,0 l/m 0,0 km/h (0 Bft) S-SW 212 0 min 0,000 mm 0,0 UV-I 59 W/m 9,1 C 13,6 C 0,0 km/h (0 Bft) 0,00 %
02.05.2015 19:30 13,3 C 77 % 1011,6 hPa 0,0 l/m 0,0 km/h (0 Bft) S 174 0 min 0,000 mm 0,0 UV-I 53 W/m 9,4 C 13,3 C 0,0 km/h (0 Bft) 0,00 %
02.05.2015 19:45 13,0 C 78 % 1011,9 hPa 0,0 l/m 0,0 km/h (0 Bft) S 181 0 min 0,000 mm 0,0 UV-I 33 W/m 9,3 C 13,0 C 0,0 km/h (0 Bft) 0,00 %
02.05.2015 20:00 12,7 C 80 % 1011,8 hPa 0,0 l/m 0,0 km/h (0 Bft) S-SW 199 0 min 0,000 mm 0,0 UV-I 18 W/m 9,3 C 12,7 C 0,0 km/h (0 Bft) 0,00 %
02.05.2015 20:15 12,5 C 82 % 1011,9 hPa 0,0 l/m 0,0 km/h (0 Bft) S-SW 199 0 min 0,000 mm 0,0 UV-I 0 W/m 9,5 C 12,5 C 0,0 km/h (0 Bft) 0,00 %
02.05.2015 20:30 12,2 C 83 % 1012,0 hPa 0,0 l/m 0,0 km/h (0 Bft) S-SW 199 0 min 0,000 mm 0,0 UV-I 0 W/m 9,4 C 12,2 C 0,0 km/h (0 Bft) 0,00 %
02.05.2015 20:45 11,8 C 85 % 1012,1 hPa 0,0 l/m 0,0 km/h (0 Bft) S 179 0 min 0,000 mm 0,0 UV-I 0 W/m 9,4 C 11,8 C 0,0 km/h (0 Bft) 0,00 %
02.05.2015 21:00 11,4 C 87 % 1012,1 hPa 0,0 l/m 0,0 km/h (0 Bft) S 179 0 min 0,000 mm 0,0 UV-I 0 W/m 9,3 C 11,4 C 0,0 km/h (0 Bft) 0,00 %
02.05.2015 21:15 11,1 C 89 % 1012,3 hPa 0,0 l/m 0,0 km/h (0 Bft) S 179 0 min 0,000 mm 0,0 UV-I 0 W/m 9,4 C 11,1 C 0,0 km/h (0 Bft) 0,00 %
02.05.2015 21:30 10,9 C 90 % 1012,2 hPa 0,0 l/m 0,0 km/h (0 Bft) S 179 0 min 0,000 mm 0,0 UV-I 0 W/m 9,3 C 10,9 C 0,0 km/h (0 Bft) 0,00 %
02.05.2015 21:45 10,6 C 91 % 1012,5 hPa 0,0 l/m 0,0 km/h (0 Bft) S 179 0 min 0,000 mm 0,0 UV-I 0 W/m 9,2 C 10,6 C 0,0 km/h (0 Bft) 0,00 %
02.05.2015 22:00 10,8 C 91 % 1012,4 hPa 0,0 l/m 0,7 km/h (0 Bft) SO 136 0 min 0,000 mm 0,0 UV-I 0 W/m 9,4 C 10,8 C 4,0 km/h (1 Bft) 0,00 %
02.05.2015 22:15 10,8 C 91 % 1012,3 hPa 0,0 l/m 0,0 km/h (0 Bft) S 176 0 min 0,000 mm 0,0 UV-I 0 W/m 9,4 C 10,8 C 0,0 km/h (0 Bft) 0,00 %
02.05.2015 22:30 10,6 C 92 % 1012,5 hPa 0,0 l/m 0,0 km/h (0 Bft) S 176 0 min 0,000 mm 0,0 UV-I 0 W/m 9,4 C 10,6 C 0,0 km/h (0 Bft) 0,00 %
02.05.2015 22:45 10,2 C 93 % 1012,3 hPa 0,0 l/m 0,0 km/h (0 Bft) S 173 0 min 0,000 mm 0,0 UV-I 0 W/m 9,1 C 10,2 C 0,0 km/h (0 Bft) 0,00 %
02.05.2015 23:00 10,1 C 93 % 1012,1 hPa 0,0 l/m 0,0 km/h (0 Bft) S 173 0 min 0,000 mm 0,0 UV-I 0 W/m 9,0 C 10,1 C 0,0 km/h (0 Bft) 0,00 %
02.05.2015 23:15 9,8 C 94 % 1012,2 hPa 0,0 l/m 0,0 km/h (0 Bft) O-NO 69 0 min 0,000 mm 0,0 UV-I 0 W/m 8,9 C 9,8 C 0,0 km/h (0 Bft) 0,00 %
02.05.2015 23:30 9,6 C 94 % 1012,1 hPa 0,0 l/m 0,0 km/h (0 Bft) S-SW 192 0 min 0,000 mm 0,0 UV-I 0 W/m 8,7 C 9,6 C 0,0 km/h (0 Bft) 0,00 %
02.05.2015 23:45 9,4 C 95 % 1011,9 hPa 0,0 l/m 0,0 km/h (0 Bft) S 180 0 min 0,000 mm 0,0 UV-I 0 W/m 8,6 C 9,4 C 0,0 km/h (0 Bft) 0,00 %
_ Min-Zeit 07:00 15:15 00:30 - 00:00 - - - - - - 15:30 07:00 00:00 00:00
Minimum _ 9,2 C 60 % 1003,2 hPa - 0,0 km/h (0 Bft) - - - - - - 7,9 C 9,2 C 0,0 km/h (0 Bft) 0,00 %
_ Max-Zeit 15:15 00:00 21:45 05:30 13:30 - - 13:00 00:00 14:30 14:45 11:00 15:15 11:45 00:00
Maximum _ 15,9 C 99 % 1012,5 hPa 2,7 l/m 5,8 km/h
W-SW (2 Bft)
- - 15 min 0,000 mm 5,0 UV-I 517 W/m 10,2 C 15,9 C 7,9 km/h
SW (2 Bft)
0,00 %
Durchschnitt _ 11,4 C 87 % 1009,0 hPa #13,5 l/m 0,5 km/h (0 Bft) SW - #2:00 h #0,000 mm 1,8 UV-I 199 W/m 9,1 C 11,4 C 1,3 km/h (1 Bft) 0,00 %